Time;durP1;ratioP1;P1;durP2;ratioP2;P2;SDS_P1;SDS_P2;PMS_P1;PMS_P2;Temp;Humidity;BMP_temperature;BMP_pressure;BME280_temperature;BME280_humidity;BME280_pressure;Samples;Min_cycle;Max_cycle;Signal;HPM_P1;HPM_P2
2022/04/24 00:01:28;;;;;;;28.53;10.63;;;11.40;99.90;;;;;;5012086;28;20200;-61
2022/04/24 00:03:54;;;;;;;28.07;11.20;;;11.40;99.90;;;;;;5011337;28;20183;-61
2022/04/24 00:06:20;;;;;;;29.40;10.50;;;11.50;99.90;;;;;;5011633;28;20181;-61
2022/04/24 00:08:46;;;;;;;27.97;10.37;;;11.40;99.90;;;;;;5011610;28;20746;-60
2022/04/24 00:11:11;;;;;;;24.10;10.43;;;11.50;99.90;;;;;;5011375;28;20178;-60
2022/04/24 00:13:40;;;;;;;30.30;10.97;;;11.40;99.90;;;;;;5011457;28;20182;-60
2022/04/24 00:16:06;;;;;;;25.57;10.70;;;11.40;99.90;;;;;;5011382;28;20236;-60
2022/04/24 00:18:32;;;;;;;31.03;11.03;;;11.40;99.90;;;;;;5011279;28;20641;-61
2022/04/24 00:20:58;;;;;;;31.57;10.50;;;11.30;99.90;;;;;;5011313;28;20662;-60
2022/04/24 00:23:24;;;;;;;26.20;10.23;;;11.20;99.90;;;;;;5011565;28;20167;-61
2022/04/24 00:25:49;;;;;;;28.97;11.03;;;11.20;99.90;;;;;;5010971;28;20237;-61
2022/04/24 00:28:15;;;;;;;30.07;11.10;;;11.20;99.90;;;;;;5011319;28;20233;-64
2022/04/24 00:30:41;;;;;;;22.40;9.60;;;11.20;99.90;;;;;;5010668;28;20198;-64
2022/04/24 00:33:06;;;;;;;26.77;10.80;;;11.10;99.90;;;;;;5011089;28;20506;-64
2022/04/24 00:35:32;;;;;;;26.50;10.97;;;11.10;99.90;;;;;;5011455;28;20669;-64
2022/04/24 00:37:58;;;;;;;29.27;10.40;;;11.10;99.90;;;;;;5011540;28;20332;-62
2022/04/24 00:40:24;;;;;;;28.47;11.07;;;11.00;99.90;;;;;;5010238;28;20652;-63
2022/04/24 00:42:50;;;;;;;29.57;11.27;;;11.00;99.90;;;;;;5011593;28;20581;-63
2022/04/24 00:45:16;;;;;;;32.57;11.90;;;10.90;99.90;;;;;;5008293;28;20241;-62
2022/04/24 00:47:41;;;;;;;34.57;12.43;;;10.90;99.90;;;;;;5011338;28;20305;-62
2022/04/24 00:50:08;;;;;;;26.03;10.73;;;10.90;99.90;;;;;;5010355;28;20536;-62
2022/04/24 00:52:34;;;;;;;28.90;10.80;;;10.80;99.90;;;;;;5010157;28;20181;-62
2022/04/24 00:55:00;;;;;;;31.77;11.70;;;10.80;99.90;;;;;;5011321;28;20178;-62
2022/04/24 00:57:26;;;;;;;31.37;11.40;;;10.70;99.90;;;;;;5011321;28;20174;-62
2022/04/24 00:59:51;;;;;;;30.37;11.17;;;10.60;99.90;;;;;;5011321;28;20609;-62
2022/04/24 01:02:17;;;;;;;31.53;11.07;;;10.60;99.90;;;;;;5010835;28;20257;-61
2022/04/24 01:04:43;;;;;;;29.93;12.57;;;10.50;99.90;;;;;;5010042;28;20213;-62
2022/04/24 01:07:10;;;;;;;29.90;11.57;;;10.50;99.90;;;;;;5011207;28;20202;-62
2022/04/24 01:09:36;;;;;;;36.57;12.13;;;10.50;99.90;;;;;;5010692;28;20604;-62
2022/04/24 01:12:03;;;;;;;32.20;11.80;;;10.50;99.90;;;;;;5011266;28;20208;-62
2022/04/24 01:14:30;;;;;;;30.90;12.00;;;10.50;99.90;;;;;;5010889;28;20178;-62
2022/04/24 01:16:56;;;;;;;32.70;12.27;;;10.50;99.90;;;;;;5011082;28;20660;-62
2022/04/24 01:19:24;;;;;;;34.77;12.70;;;10.30;99.90;;;;;;5011235;28;20224;-63
2022/04/24 01:21:50;;;;;;;27.87;11.37;;;10.30;99.90;;;;;;5011276;28;20182;-63
2022/04/24 01:24:20;;;;;;;31.20;12.80;;;10.20;99.90;;;;;;5010756;28;20158;-64
2022/04/24 01:26:46;;;;;;;36.80;12.80;;;10.30;99.90;;;;;;5010862;28;20218;-64
2022/04/24 01:29:12;;;;;;;35.70;11.90;;;10.20;99.90;;;;;;5010613;28;20178;-64
2022/04/24 01:31:39;;;;;;;37.03;13.30;;;10.20;99.90;;;;;;5011009;28;20204;-63
2022/04/24 01:34:05;;;;;;;28.87;12.60;;;10.10;99.90;;;;;;5011014;28;20671;-64
2022/04/24 01:36:31;;;;;;;32.40;12.03;;;10.10;99.90;;;;;;5010798;28;20170;-64
2022/04/24 01:38:57;;;;;;;31.17;12.93;;;10.20;99.90;;;;;;5010796;28;20185;-62
2022/04/24 01:41:23;;;;;;;31.60;12.40;;;10.10;99.90;;;;;;5010959;28;20178;-62
2022/04/24 01:43:49;;;;;;;28.73;13.00;;;10.20;99.90;;;;;;5011073;28;20594;-62
2022/04/24 01:46:16;;;;;;;32.30;13.33;;;10.10;99.90;;;;;;5010722;28;20267;-62
2022/04/24 01:48:42;;;;;;;35.07;12.50;;;10.20;99.90;;;;;;5010631;28;20241;-63
2022/04/24 01:51:09;;;;;;;33.83;12.97;;;10.10;99.90;;;;;;5010726;28;20178;-64
2022/04/24 01:53:35;;;;;;;36.10;13.10;;;10.10;99.90;;;;;;5010849;28;20186;-64
2022/04/24 01:56:04;;;;;;;43.77;14.40;;;10.10;99.90;;;;;;5010703;28;20221;-64
2022/04/24 01:58:30;;;;;;;34.50;13.37;;;10.10;99.90;;;;;;5010128;28;20210;-62
2022/04/24 02:00:56;;;;;;;30.93;11.87;;;10.10;99.90;;;;;;5011183;28;20186;-63
2022/04/24 02:03:24;;;;;;;33.13;12.50;;;10.10;99.90;;;;;;5014494;28;20225;-63
2022/04/24 02:05:50;;;;;;;37.00;13.33;;;10.10;99.90;;;;;;5014449;28;20178;-63
2022/04/24 02:08:16;;;;;;;27.30;12.13;;;10.00;99.90;;;;;;5014100;28;20587;-63
2022/04/24 02:10:42;;;;;;;41.23;13.13;;;9.90;99.90;;;;;;5013405;28;20210;-63
2022/04/24 02:13:09;;;;;;;28.67;12.67;;;9.90;99.90;;;;;;5014478;28;20183;-64
2022/04/24 02:15:35;;;;;;;35.30;12.90;;;10.00;99.90;;;;;;5014013;28;20178;-64
2022/04/24 02:18:01;;;;;;;39.70;13.40;;;10.00;99.90;;;;;;5014056;28;20269;-64
2022/04/24 02:20:30;;;;;;;34.83;12.87;;;9.90;99.90;;;;;;5014139;28;20174;-64
2022/04/24 02:22:57;;;;;;;26.00;12.17;;;10.00;99.90;;;;;;5013972;28;20202;-64
2022/04/24 02:25:27;;;;;;;32.57;12.13;;;9.90;99.90;;;;;;5013211;28;20226;-64
2022/04/24 02:27:54;;;;;;;36.13;12.47;;;9.90;99.90;;;;;;5012665;28;20222;-64
2022/04/24 02:30:25;;;;;;;33.17;12.17;;;9.90;99.90;;;;;;5012786;28;20174;-64
2022/04/24 02:32:51;;;;;;;30.87;11.93;;;9.90;99.90;;;;;;5013410;28;20183;-64
2022/04/24 02:35:17;;;;;;;39.17;13.33;;;9.90;99.90;;;;;;5013726;28;20678;-64
2022/04/24 02:37:44;;;;;;;27.87;11.60;;;9.90;99.90;;;;;;5013728;28;20186;-64
2022/04/24 02:40:10;;;;;;;31.90;12.60;;;9.90;99.90;;;;;;5013847;28;20290;-64
2022/04/24 02:42:38;;;;;;;31.23;12.23;;;9.80;99.90;;;;;;5013435;28;20169;-61
2022/04/24 02:45:08;;;;;;;38.27;12.30;;;9.70;99.90;;;;;;5013267;28;20720;-62
2022/04/24 02:47:34;;;;;;;39.50;12.43;;;9.70;99.90;;;;;;5012251;28;20206;-62
2022/04/24 02:50:00;;;;;;;33.77;12.60;;;9.70;99.90;;;;;;5013533;28;20656;-62
2022/04/24 02:52:26;;;;;;;33.43;12.40;;;9.70;99.90;;;;;;5013322;28;20193;-62
2022/04/24 02:54:51;;;;;;;33.23;12.63;;;9.70;99.90;;;;;;5013177;28;20646;-61
2022/04/24 02:57:17;;;;;;;35.57;12.60;;;9.70;99.90;;;;;;5011064;28;20218;-61
2022/04/24 02:59:44;;;;;;;34.10;12.33;;;9.70;99.90;;;;;;5013066;28;20209;-62
2022/04/24 03:02:12;;;;;;;35.10;11.87;;;9.70;99.90;;;;;;5013336;28;20214;-63
2022/04/24 03:04:39;;;;;;;33.37;11.87;;;9.70;99.90;;;;;;5011519;28;20214;-64
2022/04/24 03:07:05;;;;;;;31.80;11.77;;;9.70;99.90;;;;;;5013033;28;20219;-64
2022/04/24 03:09:32;;;;;;;33.47;13.03;;;9.60;99.90;;;;;;5013329;28;20353;-64
2022/04/24 03:11:58;;;;;;;35.20;12.03;;;9.60;99.90;;;;;;5013301;28;20189;-64
2022/04/24 03:14:24;;;;;;;32.57;11.67;;;9.60;99.90;;;;;;5012329;28;20167;-64
2022/04/24 03:16:49;;;;;;;30.57;11.73;;;9.60;99.90;;;;;;5013062;28;20645;-64
2022/04/24 03:19:15;;;;;;;38.40;12.30;;;9.70;99.90;;;;;;5012933;28;20182;-63
2022/04/24 03:21:41;;;;;;;29.47;12.00;;;9.70;99.90;;;;;;5012219;28;20197;-64
2022/04/24 03:24:07;;;;;;;38.03;12.40;;;9.70;99.90;;;;;;5011992;28;20179;-64
2022/04/24 03:26:32;;;;;;;29.83;12.43;;;9.70;99.90;;;;;;5012707;28;20694;-65
2022/04/24 03:28:58;;;;;;;32.70;12.30;;;9.70;99.90;;;;;;5012405;28;20209;-64
2022/04/24 03:31:24;;;;;;;32.07;11.90;;;9.60;99.90;;;;;;5012190;28;20659;-64
2022/04/24 03:33:52;;;;;;;33.77;11.70;;;9.70;99.90;;;;;;5012405;28;20178;-64
2022/04/24 03:36:18;;;;;;;34.43;12.90;;;9.70;99.90;;;;;;5012588;28;20179;-65
2022/04/24 03:38:44;;;;;;;35.17;11.80;;;9.70;99.90;;;;;;5012798;28;20171;-65
2022/04/24 03:41:10;;;;;;;28.97;11.43;;;9.70;99.90;;;;;;5011004;28;20178;-65
2022/04/24 03:43:36;;;;;;;29.00;11.77;;;9.70;99.90;;;;;;5012587;28;20711;-65
2022/04/24 03:46:03;;;;;;;25.77;11.63;;;9.70;99.90;;;;;;5012351;28;20594;-65
2022/04/24 03:48:29;;;;;;;30.73;12.20;;;9.70;99.90;;;;;;5012300;28;20210;-64
2022/04/24 03:50:54;;;;;;;33.17;13.13;;;9.60;99.90;;;;;;5012117;28;20603;-65
2022/04/24 03:53:20;;;;;;;35.60;12.07;;;9.50;99.90;;;;;;5012513;28;20187;-64
2022/04/24 03:55:46;;;;;;;31.87;12.30;;;9.50;99.90;;;;;;5012496;28;20626;-64
2022/04/24 03:58:12;;;;;;;33.67;11.97;;;9.50;99.90;;;;;;5012190;28;20635;-64
2022/04/24 04:00:38;;;;;;;32.93;13.07;;;9.50;99.90;;;;;;5012338;28;20209;-64
2022/04/24 04:03:03;;;;;;;29.20;12.50;;;9.50;99.90;;;;;;5012195;28;20229;-63
2022/04/24 04:05:29;;;;;;;36.37;11.93;;;9.50;99.90;;;;;;5011804;28;20182;-64
2022/04/24 04:07:56;;;;;;;35.10;12.33;;;9.50;99.90;;;;;;5012025;28;20216;-64
2022/04/24 04:10:22;;;;;;;32.57;12.60;;;9.40;99.90;;;;;;5011648;28;20232;-64
2022/04/24 04:12:49;;;;;;;36.30;13.20;;;9.40;99.90;;;;;;5011774;28;20175;-64
2022/04/24 04:15:15;;;;;;;35.97;12.20;;;9.40;99.90;;;;;;5011881;28;20174;-65
2022/04/24 04:17:41;;;;;;;36.87;13.57;;;9.30;99.90;;;;;;5011703;28;20228;-64
2022/04/24 04:20:11;;;;;;;32.47;12.83;;;9.30;99.90;;;;;;5011469;28;20649;-63
2022/04/24 04:22:52;;;;;;;36.03;12.53;;;9.30;99.90;;;;;;5012053;28;20187;-63
2022/04/24 04:25:19;;;;;;;33.60;13.13;;;9.20;99.90;;;;;;5011714;28;20214;-63
2022/04/24 04:27:45;;;;;;;30.60;13.00;;;9.20;99.90;;;;;;5011684;28;20697;-63
2022/04/24 04:30:11;;;;;;;32.70;12.53;;;9.20;99.90;;;;;;5011695;28;20224;-63
2022/04/24 04:32:37;;;;;;;34.03;12.67;;;9.20;99.90;;;;;;5011853;28;20649;-64
2022/04/24 04:35:04;;;;;;;35.90;12.23;;;9.20;99.90;;;;;;5011618;28;20186;-62
2022/04/24 04:37:31;;;;;;;29.43;11.57;;;9.20;99.90;;;;;;5011693;28;20229;-62
2022/04/24 04:39:57;;;;;;;34.60;12.70;;;9.20;99.90;;;;;;5011168;28;20179;-61
2022/04/24 04:42:23;;;;;;;29.60;12.10;;;9.20;99.90;;;;;;5011569;28;20189;-62
2022/04/24 04:44:49;;;;;;;35.30;13.40;;;9.10;99.90;;;;;;5011603;28;20170;-61
2022/04/24 04:47:15;;;;;;;36.20;13.40;;;9.20;99.90;;;;;;5011102;28;20206;-62
2022/04/24 04:49:40;;;;;;;38.93;13.00;;;9.10;99.90;;;;;;5011211;28;20175;-62
2022/04/24 04:52:06;;;;;;;31.70;13.23;;;9.10;99.90;;;;;;5011342;28;20175;-61
2022/04/24 04:54:32;;;;;;;30.43;12.40;;;9.10;99.90;;;;;;5011536;28;20649;-62
2022/04/24 04:56:58;;;;;;;40.97;14.33;;;9.10;99.90;;;;;;5010103;28;20217;-62
2022/04/24 04:59:23;;;;;;;39.00;12.97;;;9.10;99.90;;;;;;5010033;28;20644;-61
2022/04/24 05:01:49;;;;;;;34.27;12.27;;;9.10;99.90;;;;;;5011449;28;20178;-62
2022/04/24 05:04:15;;;;;;;39.20;12.90;;;9.20;99.90;;;;;;5011220;28;20205;-61
2022/04/24 05:06:40;;;;;;;34.83;12.43;;;9.10;99.90;;;;;;5011246;28;20177;-62
2022/04/24 05:09:07;;;;;;;33.07;12.33;;;9.10;99.90;;;;;;5011415;28;20205;-62
2022/04/24 05:11:33;;;;;;;35.43;12.60;;;9.10;99.90;;;;;;5011138;28;20696;-62
2022/04/24 05:13:59;;;;;;;30.20;12.63;;;9.10;99.90;;;;;;5009555;28;20183;-63
2022/04/24 05:16:25;;;;;;;31.77;12.53;;;9.10;99.90;;;;;;4996114;28;20174;-64
2022/04/24 05:18:51;;;;;;;36.23;12.63;;;9.10;99.90;;;;;;5010385;28;20174;-64
2022/04/24 05:21:17;;;;;;;36.30;12.77;;;9.10;99.90;;;;;;5010474;28;20730;-64
2022/04/24 05:23:45;;;;;;;35.07;11.73;;;9.10;99.90;;;;;;5008125;28;20185;-63
2022/04/24 05:26:12;;;;;;;35.27;12.23;;;9.00;99.90;;;;;;5010234;28;20769;-63
2022/04/24 05:28:38;;;;;;;27.13;12.30;;;9.10;99.90;;;;;;5009769;28;20693;-63
2022/04/24 05:31:05;;;;;;;37.73;11.97;;;9.10;99.90;;;;;;5010120;28;20178;-64
2022/04/24 05:33:31;;;;;;;37.37;12.77;;;9.10;99.90;;;;;;5010025;28;20712;-64
2022/04/24 05:35:57;;;;;;;31.83;11.77;;;9.10;99.90;;;;;;5011055;28;20256;-63
2022/04/24 05:38:23;;;;;;;31.83;12.53;;;9.20;99.90;;;;;;5014848;28;20215;-64
2022/04/24 05:40:49;;;;;;;34.10;12.50;;;9.20;99.90;;;;;;5014689;28;20308;-62
2022/04/24 05:43:15;;;;;;;37.30;11.37;;;9.20;99.90;;;;;;5014737;28;20179;-63
2022/04/24 05:45:41;;;;;;;36.27;12.97;;;9.20;99.90;;;;;;5014717;28;20190;-63
2022/04/24 05:48:07;;;;;;;39.87;12.50;;;9.30;99.90;;;;;;5014484;28;20214;-63
2022/04/24 05:50:33;;;;;;;37.50;12.37;;;9.30;99.90;;;;;;5014675;28;20560;-64
2022/04/24 05:52:59;;;;;;;36.03;12.17;;;9.40;99.90;;;;;;5014658;28;20171;-64
2022/04/24 05:55:25;;;;;;;33.37;12.17;;;9.40;99.90;;;;;;5013085;28;20182;-64
2022/04/24 05:57:52;;;;;;;31.67;11.40;;;9.40;99.90;;;;;;5013351;28;20233;-64
2022/04/24 06:00:19;;;;;;;32.87;11.00;;;9.50;99.90;;;;;;5014418;28;20336;-64
2022/04/24 06:02:45;;;;;;;35.33;12.10;;;9.50;99.90;;;;;;5013792;28;20183;-64
2022/04/24 06:05:11;;;;;;;43.67;12.67;;;9.60;99.90;;;;;;5014424;28;20194;-64
2022/04/24 06:07:38;;;;;;;35.33;11.30;;;9.70;99.90;;;;;;5014370;28;20605;-64
2022/04/24 06:10:05;;;;;;;31.57;11.37;;;9.70;99.90;;;;;;5014308;28;20457;-64
2022/04/24 06:12:31;;;;;;;34.90;10.70;;;9.80;99.90;;;;;;5014188;28;20217;-62
2022/04/24 06:15:03;;;;;;;31.87;11.33;;;9.90;99.90;;;;;;5013869;28;20202;-63
2022/04/24 06:17:30;;;;;;;36.00;10.87;;;10.00;99.90;;;;;;5014147;28;20179;-63
2022/04/24 06:19:56;;;;;;;32.93;10.93;;;10.00;99.90;;;;;;5013692;28;20249;-63
2022/04/24 06:22:22;;;;;;;33.57;11.33;;;10.00;99.90;;;;;;5013637;28;20262;-63
2022/04/24 06:24:50;;;;;;;33.40;11.00;;;10.10;99.90;;;;;;5013723;28;20210;-63
2022/04/24 06:27:16;;;;;;;24.23;10.07;;;10.20;99.90;;;;;;5013804;28;20218;-63
2022/04/24 06:29:42;;;;;;;25.63;10.40;;;10.20;99.90;;;;;;5014107;28;20273;-63
2022/04/24 06:32:08;;;;;;;33.73;11.30;;;10.20;99.90;;;;;;5013985;28;20803;-64
2022/04/24 06:34:34;;;;;;;34.13;11.33;;;10.30;99.90;;;;;;5010410;28;20170;-73
2022/04/24 06:37:00;;;;;;;35.20;10.47;;;10.40;99.90;;;;;;5013549;28;20185;-61
2022/04/24 06:39:26;;;;;;;32.17;10.73;;;10.40;99.90;;;;;;5010117;28;20178;-60
2022/04/24 06:41:52;;;;;;;28.33;10.33;;;10.50;99.90;;;;;;5012658;28;20179;-60
2022/04/24 06:44:17;;;;;;;26.97;11.00;;;10.50;99.90;;;;;;5013879;28;20748;-60
2022/04/24 06:46:46;;;;;;;33.73;10.83;;;10.50;99.90;;;;;;4998759;28;20179;-60
2022/04/24 06:49:12;;;;;;;29.50;10.00;;;10.60;99.90;;;;;;5000998;28;20182;-60
2022/04/24 06:51:38;;;;;;;34.70;10.83;;;10.60;99.90;;;;;;5013493;28;20170;-61
2022/04/24 06:54:04;;;;;;;30.70;9.83;;;10.70;99.90;;;;;;5013594;28;20179;-61
2022/04/24 06:56:30;;;;;;;29.20;10.50;;;10.70;99.90;;;;;;5013278;28;20182;-61
2022/04/24 06:58:55;;;;;;;36.43;11.23;;;10.80;99.90;;;;;;4998813;28;20175;-61
2022/04/24 07:01:23;;;;;;;29.27;10.00;;;10.80;99.90;;;;;;4994007;28;20282;-62
2022/04/24 07:03:53;;;;;;;32.50;9.87;;;10.90;99.90;;;;;;4993855;28;20183;-63
2022/04/24 07:06:18;;;;;;;33.80;11.43;;;10.90;99.90;;;;;;5011881;28;20171;-63
2022/04/24 07:08:44;;;;;;;30.43;10.00;;;10.90;99.90;;;;;;5011746;28;20672;-72
2022/04/24 07:11:10;;;;;;;31.63;10.03;;;11.00;99.90;;;;;;5011923;28;20210;-72
2022/04/24 07:13:36;;;;;;;33.23;10.17;;;11.00;99.90;;;;;;5013105;28;20545;-72
2022/04/24 07:16:02;;;;;;;28.77;9.13;;;11.10;99.90;;;;;;5013010;28;20253;-74
2022/04/24 07:18:30;;;;;;;30.23;9.60;;;11.10;99.90;;;;;;5013006;28;20194;-71
2022/04/24 07:20:56;;;;;;;31.23;10.13;;;11.00;99.90;;;;;;5012768;28;20220;-73
2022/04/24 07:23:21;;;;;;;34.60;11.60;;;11.10;99.90;;;;;;5013446;28;20247;-73
2022/04/24 07:25:48;;;;;;;30.30;9.70;;;11.10;99.90;;;;;;5012857;28;20225;-72
2022/04/24 07:28:15;;;;;;;38.10;9.70;;;11.00;99.90;;;;;;5013044;28;20241;-72
2022/04/24 07:30:42;;;;;;;28.07;10.10;;;11.20;99.90;;;;;;5013137;28;20321;-72
2022/04/24 07:33:11;;;;;;;32.57;9.73;;;11.20;99.90;;;;;;5011720;28;20189;-73
2022/04/24 07:35:38;;;;;;;23.30;9.13;;;11.20;99.90;;;;;;5012755;28;20177;-73
2022/04/24 07:38:04;;;;;;;29.10;9.27;;;11.30;99.90;;;;;;5012545;28;20174;-72
2022/04/24 07:40:31;;;;;;;28.47;8.97;;;11.40;99.90;;;;;;5012205;28;20693;-72
2022/04/24 07:43:03;;;;;;;32.80;9.10;;;11.60;99.90;;;;;;5012076;28;20233;-71
2022/04/24 07:45:32;;;;;;;30.80;9.60;;;11.60;99.90;;;;;;5011523;28;20167;-72
2022/04/24 07:47:59;;;;;;;28.10;10.00;;;11.70;99.90;;;;;;5012095;28;20203;-59
2022/04/24 07:50:30;;;;;;;29.57;8.70;;;11.90;99.90;;;;;;5011531;28;20170;-59
2022/04/24 07:52:57;;;;;;;30.07;9.90;;;12.10;99.90;;;;;;5010855;28;20279;-59
2022/04/24 07:55:24;;;;;;;34.60;9.40;;;12.20;99.90;;;;;;5012060;28;20700;-59
2022/04/24 07:57:52;;;;;;;25.77;9.07;;;12.50;99.90;;;;;;5008759;28;20221;-59
2022/04/24 08:00:21;;;;;;;26.45;9.20;;;12.70;99.90;;;;;;5001224;28;20230;-63
2022/04/24 08:02:54;;;;;;;24.35;9.18;;;12.60;99.90;;;;;;5011405;28;20217;-67
2022/04/24 08:05:39;;;;;;;29.83;9.20;;;12.70;99.90;;;;;;5010987;28;20167;-66
2022/04/24 08:08:07;;;;;;;28.73;8.90;;;12.80;99.90;;;;;;5011697;28;20198;-64
2022/04/24 08:10:35;;;;;;;28.20;8.65;;;13.00;99.90;;;;;;5011058;28;20241;-64
2022/04/24 08:13:04;;;;;;;28.37;9.17;;;13.00;99.90;;;;;;5011112;28;20209;-61
2022/04/24 08:15:30;;;;;;;25.20;8.98;;;13.00;99.90;;;;;;5012120;28;20182;-65
2022/04/24 08:17:56;;;;;;;30.73;8.63;;;13.10;99.90;;;;;;5010179;28;20198;-78
2022/04/24 08:20:22;;;;;;;25.33;8.45;;;14.00;99.90;;;;;;5004123;28;20829;-66
2022/04/24 08:22:50;;;;;;;25.50;8.40;;;15.00;99.90;;;;;;5010991;28;20174;-65
2022/04/24 08:25:19;;;;;;;23.95;7.80;;;15.50;99.90;;;;;;5011962;28;20222;-65
2022/04/24 08:27:47;;;;;;;25.83;8.40;;;15.80;99.90;;;;;;5011923;28;20787;-58
2022/04/24 08:30:15;;;;;;;29.73;9.13;;;15.10;99.90;;;;;;5011490;28;20182;-70
2022/04/24 08:32:41;;;;;;;23.67;8.45;;;14.60;99.90;;;;;;5007393;28;20540;-71
2022/04/24 08:35:09;;;;;;;28.98;8.50;;;14.30;99.90;;;;;;5011752;28;20166;-70
2022/04/24 08:37:35;;;;;;;19.65;8.38;;;14.50;99.90;;;;;;5011295;28;20179;-70
2022/04/24 08:40:03;;;;;;;27.95;8.13;;;15.00;99.90;;;;;;5008688;28;20167;-70
2022/04/24 08:42:30;;;;;;;26.92;8.70;;;15.50;99.90;;;;;;4998870;28;20204;-69
2022/04/24 08:44:56;;;;;;;26.08;9.20;;;15.70;99.90;;;;;;5007814;28;20177;-70
2022/04/24 08:47:25;;;;;;;26.10;9.18;;;15.90;99.90;;;;;;5008484;28;20211;-70
2022/04/24 08:49:59;;;;;;;24.85;8.30;;;16.90;99.90;;;;;;5010997;28;20175;-71
2022/04/24 08:52:30;;;;;;;22.27;7.78;;;17.60;99.90;;;;;;5011594;28;20170;-70
2022/04/24 08:54:58;;;;;;;30.98;8.20;;;19.00;99.90;;;;;;5011570;28;20206;-70
2022/04/24 08:57:30;;;;;;;17.48;6.82;;;20.10;99.90;;;;;;5011136;28;20175;-70
2022/04/24 08:59:58;;;;;;;20.10;7.57;;;20.90;99.90;;;;;;5011421;28;20181;-71
2022/04/24 09:02:24;;;;;;;24.65;7.90;;;20.60;99.90;;;;;;5011206;28;20174;-70
2022/04/24 09:04:52;;;;;;;20.52;7.78;;;19.50;99.90;;;;;;5007273;28;20641;-69
2022/04/24 09:07:19;;;;;;;19.75;7.13;;;18.90;99.90;;;;;;5011142;28;20218;-70
2022/04/24 09:09:50;;;;;;;24.73;7.50;;;18.60;99.90;;;;;;5009747;28;20265;-71
2022/04/24 09:12:26;;;;;;;21.77;7.07;;;18.00;99.90;;;;;;4990907;28;20650;-70
2022/04/24 09:14:54;;;;;;;21.77;9.18;;;17.60;99.90;;;;;;4996221;28;20174;-70
2022/04/24 09:17:22;;;;;;;23.02;8.07;;;17.30;99.90;;;;;;4991568;28;20229;-70
2022/04/24 09:19:48;;;;;;;23.42;8.93;;;17.80;99.90;;;;;;4991741;28;20246;-70
2022/04/24 09:22:14;;;;;;;22.95;7.95;;;17.70;99.90;;;;;;5004012;28;20190;-69
2022/04/24 09:24:52;;;;;;;20.13;7.45;;;18.20;99.90;;;;;;5008127;28;20293;-71
2022/04/24 09:27:52;;;;;;;18.40;7.18;;;18.50;99.90;;;;;;5010768;28;20325;-70
2022/04/24 09:30:17;;;;;;;20.27;6.75;;;19.00;99.90;;;;;;5011049;28;20245;-71
2022/04/24 09:32:52;;;;;;;20.55;7.35;;;19.30;99.90;;;;;;5010754;28;20654;-69
2022/04/24 09:35:32;;;;;;;22.40;7.07;;;19.50;99.90;;;;;;5010891;28;20632;-62
2022/04/24 09:38:15;;;;;;;17.98;6.70;;;19.50;99.90;;;;;;5010856;28;20282;-71
2022/04/24 09:40:48;;;;;;;19.17;6.40;;;20.20;99.90;;;;;;5010815;28;20289;-71
2022/04/24 09:43:16;;;;;;;21.60;6.68;;;20.60;99.90;;;;;;5010667;28;20649;-71
2022/04/24 09:45:50;;;;;;;19.40;6.80;;;21.10;99.90;;;;;;5010863;28;20186;-70
2022/04/24 09:48:18;;;;;;;19.52;6.60;;;21.20;99.90;;;;;;5010789;28;20205;-71
2022/04/24 09:50:44;;;;;;;20.00;6.95;;;21.40;99.90;;;;;;5008898;28;20712;-69
2022/04/24 09:53:13;;;;;;;19.40;6.82;;;21.00;99.90;;;;;;5010701;28;20200;-70
2022/04/24 09:55:43;;;;;;;16.15;6.07;;;20.40;99.90;;;;;;5011107;28;20178;-71
2022/04/24 09:58:09;;;;;;;20.27;7.18;;;20.50;99.90;;;;;;5010373;28;20182;-71
2022/04/24 10:00:35;;;;;;;16.88;6.65;;;20.30;99.90;;;;;;5008524;28;20190;-71
2022/04/24 10:03:04;;;;;;;16.95;6.95;;;20.80;99.90;;;;;;5009778;28;20171;-71
2022/04/24 10:05:31;;;;;;;16.02;5.93;;;21.10;99.90;;;;;;5010181;28;20174;-71
2022/04/24 10:07:58;;;;;;;14.85;6.85;;;21.60;99.90;;;;;;5010620;28;20692;-71
2022/04/24 10:10:24;;;;;;;15.75;6.28;;;22.10;99.90;;;;;;5010257;28;20249;-70
2022/04/24 10:12:52;;;;;;;17.17;6.50;;;22.40;99.90;;;;;;5010169;28;20278;-71
2022/04/24 10:15:20;;;;;;;18.73;7.28;;;22.60;99.90;;;;;;5010517;28;20225;-71
2022/04/24 10:18:14;;;;;;;18.35;6.65;;;22.20;99.90;;;;;;5009939;28;20206;-71
2022/04/24 10:20:48;;;;;;;13.60;6.25;;;22.30;99.90;;;;;;5010622;28;20182;-71
2022/04/24 10:23:14;;;;;;;15.73;6.57;;;23.20;99.90;;;;;;5011265;28;20208;-71
2022/04/24 10:25:42;;;;;;;21.10;7.03;;;23.40;99.90;;;;;;5014152;28;20222;-72
2022/04/24 10:28:15;;;;;;;16.35;6.95;;;23.60;99.90;;;;;;5013491;28;20205;-71
2022/04/24 10:30:57;;;;;;;13.68;6.35;;;23.70;99.90;;;;;;5012605;28;20565;-68
2022/04/24 10:33:24;;;;;;;14.20;6.25;;;22.90;99.90;;;;;;5013533;28;20163;-71
2022/04/24 10:35:53;;;;;;;18.05;6.95;;;23.20;99.90;;;;;;5013263;28;20174;-71
2022/04/24 10:38:21;;;;;;;17.67;6.45;;;23.40;99.90;;;;;;5012799;28;20536;-72
2022/04/24 10:40:59;;;;;;;17.70;6.53;;;23.70;99.90;;;;;;5011318;28;20174;-72
2022/04/24 10:43:25;;;;;;;14.25;6.82;;;23.70;99.90;;;;;;5013630;28;20182;-72
2022/04/24 10:45:51;;;;;;;15.80;6.05;;;23.50;99.90;;;;;;5013655;28;20174;-72
2022/04/24 10:48:17;;;;;;;18.75;6.85;;;23.30;99.90;;;;;;5009675;28;20202;-72
2022/04/24 10:50:52;;;;;;;15.10;6.57;;;24.00;99.90;;;;;;5011395;28;20163;-71
2022/04/24 10:53:18;;;;;;;18.50;6.80;;;24.10;99.90;;;;;;5008940;28;20186;-70
2022/04/24 10:55:44;;;;;;;12.80;6.53;;;24.20;99.90;;;;;;5011186;28;20200;-71
2022/04/24 10:58:11;;;;;;;18.15;6.68;;;24.50;99.90;;;;;;5011889;28;20179;-71
2022/04/24 11:00:38;;;;;;;12.70;6.10;;;24.50;99.90;;;;;;5011641;28;20190;-70
2022/04/24 11:03:16;;;;;;;18.33;6.40;;;25.20;99.90;;;;;;5012309;28;20217;-70
2022/04/24 11:05:44;;;;;;;13.52;6.28;;;25.40;99.90;;;;;;5013202;28;20185;-71
2022/04/24 11:08:21;;;;;;;16.05;6.60;;;25.70;99.90;;;;;;5012591;28;20689;-71
2022/04/24 11:10:50;;;;;;;15.07;6.78;;;24.70;99.90;;;;;;5013050;28;20177;-71
2022/04/24 11:13:19;;;;;;;19.80;6.63;;;23.90;99.90;;;;;;5003482;28;20178;-72
2022/04/24 11:15:48;;;;;;;14.13;6.00;;;23.90;99.90;;;;;;5012949;28;20225;-71
2022/04/24 11:18:27;;;;;;;12.68;6.55;;;24.00;99.90;;;;;;5012046;28;20187;-70
2022/04/24 11:20:53;;;;;;;15.30;6.15;;;23.90;99.90;;;;;;5002313;28;20644;-72
2022/04/24 11:23:20;;;;;;;19.17;6.68;;;24.40;99.90;;;;;;4993335;28;20186;-71
2022/04/24 11:25:46;;;;;;;15.52;5.93;;;25.40;99.90;;;;;;4993124;28;20215;-70
2022/04/24 11:28:12;;;;;;;12.02;5.18;;;25.90;99.90;;;;;;4992965;28;20297;-70
2022/04/24 11:30:39;;;;;;;10.95;6.10;;;26.70;99.90;;;;;;4992902;28;20271;-71
2022/04/24 11:33:06;;;;;;;12.18;5.53;;;27.00;99.90;;;;;;4992944;28;20187;-70
2022/04/24 11:35:38;;;;;;;14.88;5.60;;;26.80;99.90;;;;;;4992292;28;20171;-70
2022/04/24 11:38:12;;;;;;;12.35;5.35;;;27.40;99.90;;;;;;4992563;28;20210;-71
2022/04/24 11:40:46;;;;;;;15.18;6.00;;;27.20;99.90;;;;;;4993125;28;20255;-71
2022/04/24 11:43:15;;;;;;;12.82;5.53;;;27.40;99.90;;;;;;4993255;28;20178;-60
2022/04/24 11:51:18;;;;;;;10.25;4.88;;;27.10;99.90;;;;;;4993027;28;20178;-60
2022/04/24 11:53:45;;;;;;;10.52;4.32;;;27.00;99.90;;;;;;4992770;28;20214;-60
2022/04/24 11:56:15;;;;;;;13.27;5.00;;;26.60;99.90;;;;;;4992624;28;20182;-60
2022/04/24 11:58:44;;;;;;;9.80;5.00;;;25.90;99.90;;;;;;4992470;28;20717;-60
2022/04/24 12:01:13;;;;;;;10.52;5.45;;;26.90;99.90;;;;;;4992648;28;20179;-60
2022/04/24 12:03:43;;;;;;;11.73;5.10;;;26.70;99.90;;;;;;4992305;28;20183;-60
2022/04/24 12:06:11;;;;;;;12.30;4.95;;;26.30;99.90;;;;;;4990637;28;20182;-60
2022/04/24 12:08:46;;;;;;;8.77;4.55;;;24.00;99.90;;;;;;4990274;28;20210;-60
2022/04/24 12:11:28;;;;;;;12.13;5.47;;;24.00;99.90;;;;;;5007483;28;20166;-60
2022/04/24 12:14:15;;;;;;;7.45;3.83;;;25.40;99.90;;;;;;5010120;28;20194;-60
2022/04/24 12:16:47;;;;;;;9.38;4.50;;;26.40;99.90;;;;;;5009487;28;20851;-60
2022/04/24 12:19:18;;;;;;;10.25;4.68;;;26.70;99.90;;;;;;5010439;28;20206;-60
2022/04/24 12:21:51;;;;;;;8.60;4.50;;;26.10;99.90;;;;;;5011598;28;20175;-60
2022/04/24 12:24:18;;;;;;;9.80;4.38;;;25.20;99.90;;;;;;5011730;28;20209;-60
2022/04/24 12:26:54;;;;;;;7.05;4.32;;;24.10;99.90;;;;;;5010362;28;20201;-60
2022/04/24 12:29:20;;;;;;;9.23;4.90;;;23.30;99.90;;;;;;5011742;28;20648;-60
2022/04/24 12:31:47;;;;;;;8.13;5.00;;;24.20;99.90;;;;;;5012061;28;20170;-60
2022/04/24 12:34:14;;;;;;;13.63;4.95;;;25.30;99.90;;;;;;5011492;28;20257;-60
2022/04/24 12:36:50;;;;;;;9.80;4.40;;;25.20;99.90;;;;;;5011548;28;20224;-60
2022/04/24 12:39:24;;;;;;;7.55;4.35;;;24.50;99.90;;;;;;5011776;28;20178;-60
2022/04/24 12:41:50;;;;;;;14.93;4.82;;;24.00;99.90;;;;;;5011556;28;20178;-60
2022/04/24 12:44:15;;;;;;;9.60;3.92;;;25.40;99.90;;;;;;5011623;28;20700;-60